sensor_id;sensor_type;location;lat;lon;timestamp;P1;durP1;ratioP1;P2;durP2;ratioP2
19879;SDS011;10102;50.828;4.416;2024-03-25T00:00:09;8.02;;;5.82;;
19879;SDS011;10102;50.828;4.416;2024-03-25T00:02:36;10.63;;;5.68;;
19879;SDS011;10102;50.828;4.416;2024-03-25T00:05:03;15.48;;;5.25;;
19879;SDS011;10102;50.828;4.416;2024-03-25T00:07:30;8.02;;;5.15;;
19879;SDS011;10102;50.828;4.416;2024-03-25T00:09:56;9.88;;;5.80;;
19879;SDS011;10102;50.828;4.416;2024-03-25T00:12:24;10.65;;;4.93;;
19879;SDS011;10102;50.828;4.416;2024-03-25T00:14:52;9.43;;;5.35;;
19879;SDS011;10102;50.828;4.416;2024-03-25T00:17:18;9.55;;;6.15;;
19879;SDS011;10102;50.828;4.416;2024-03-25T00:19:47;6.20;;;4.80;;
19879;SDS011;10102;50.828;4.416;2024-03-25T00:22:16;9.02;;;5.45;;
19879;SDS011;10102;50.828;4.416;2024-03-25T00:24:42;9.15;;;5.38;;
19879;SDS011;10102;50.828;4.416;2024-03-25T00:27:08;12.05;;;5.25;;
19879;SDS011;10102;50.828;4.416;2024-03-25T00:29:34;7.82;;;5.93;;
19879;SDS011;10102;50.828;4.416;2024-03-25T00:32:01;9.50;;;5.45;;
19879;SDS011;10102;50.828;4.416;2024-03-25T00:34:27;7.10;;;5.35;;
19879;SDS011;10102;50.828;4.416;2024-03-25T00:36:53;10.13;;;5.25;;
19879;SDS011;10102;50.828;4.416;2024-03-25T00:39:18;10.52;;;5.18;;
19879;SDS011;10102;50.828;4.416;2024-03-25T00:41:44;7.43;;;4.97;;
19879;SDS011;10102;50.828;4.416;2024-03-25T00:44:10;10.38;;;5.72;;
19879;SDS011;10102;50.828;4.416;2024-03-25T00:46:36;13.32;;;6.20;;
19879;SDS011;10102;50.828;4.416;2024-03-25T00:49:02;9.85;;;5.88;;
19879;SDS011;10102;50.828;4.416;2024-03-25T00:51:28;10.77;;;6.25;;
19879;SDS011;10102;50.828;4.416;2024-03-25T00:53:54;8.07;;;5.88;;
19879;SDS011;10102;50.828;4.416;2024-03-25T00:56:19;10.55;;;5.95;;
19879;SDS011;10102;50.828;4.416;2024-03-25T00:58:45;7.72;;;5.35;;
19879;SDS011;10102;50.828;4.416;2024-03-25T01:01:12;8.90;;;5.97;;
19879;SDS011;10102;50.828;4.416;2024-03-25T01:03:39;7.50;;;5.43;;
19879;SDS011;10102;50.828;4.416;2024-03-25T01:06:04;11.27;;;5.32;;
19879;SDS011;10102;50.828;4.416;2024-03-25T01:08:30;8.40;;;5.25;;
19879;SDS011;10102;50.828;4.416;2024-03-25T01:10:56;11.15;;;5.28;;
19879;SDS011;10102;50.828;4.416;2024-03-25T01:13:22;8.02;;;5.28;;
19879;SDS011;10102;50.828;4.416;2024-03-25T01:15:47;7.78;;;4.85;;
19879;SDS011;10102;50.828;4.416;2024-03-25T01:18:13;8.13;;;4.55;;
19879;SDS011;10102;50.828;4.416;2024-03-25T01:20:39;8.32;;;4.88;;
19879;SDS011;10102;50.828;4.416;2024-03-25T01:23:05;11.55;;;5.32;;
19879;SDS011;10102;50.828;4.416;2024-03-25T01:25:31;9.23;;;4.97;;
19879;SDS011;10102;50.828;4.416;2024-03-25T01:27:56;12.65;;;5.80;;
19879;SDS011;10102;50.828;4.416;2024-03-25T01:30:22;11.95;;;5.13;;
19879;SDS011;10102;50.828;4.416;2024-03-25T01:32:48;12.38;;;5.28;;
19879;SDS011;10102;50.828;4.416;2024-03-25T01:35:14;7.75;;;5.00;;
19879;SDS011;10102;50.828;4.416;2024-03-25T01:37:40;6.40;;;4.97;;
19879;SDS011;10102;50.828;4.416;2024-03-25T01:40:07;10.60;;;4.90;;
19879;SDS011;10102;50.828;4.416;2024-03-25T01:42:35;11.93;;;5.80;;
19879;SDS011;10102;50.828;4.416;2024-03-25T01:45:01;8.05;;;4.93;;
19879;SDS011;10102;50.828;4.416;2024-03-25T01:47:28;6.93;;;4.32;;
19879;SDS011;10102;50.828;4.416;2024-03-25T01:49:57;8.55;;;4.72;;
19879;SDS011;10102;50.828;4.416;2024-03-25T01:52:25;6.07;;;4.68;;
19879;SDS011;10102;50.828;4.416;2024-03-25T01:54:52;7.57;;;4.63;;
19879;SDS011;10102;50.828;4.416;2024-03-25T01:57:18;7.43;;;4.50;;
19879;SDS011;10102;50.828;4.416;2024-03-25T01:59:45;8.27;;;5.00;;
19879;SDS011;10102;50.828;4.416;2024-03-25T02:02:11;6.97;;;5.15;;
19879;SDS011;10102;50.828;4.416;2024-03-25T02:04:39;7.45;;;5.10;;
19879;SDS011;10102;50.828;4.416;2024-03-25T02:07:07;6.30;;;4.32;;
19879;SDS011;10102;50.828;4.416;2024-03-25T02:09:33;5.80;;;4.30;;
19879;SDS011;10102;50.828;4.416;2024-03-25T02:12:00;6.97;;;4.72;;
19879;SDS011;10102;50.828;4.416;2024-03-25T02:14:27;9.00;;;4.68;;
19879;SDS011;10102;50.828;4.416;2024-03-25T02:16:52;8.02;;;4.88;;
19879;SDS011;10102;50.828;4.416;2024-03-25T02:19:18;11.85;;;5.40;;
19879;SDS011;10102;50.828;4.416;2024-03-25T02:21:46;9.70;;;5.15;;
19879;SDS011;10102;50.828;4.416;2024-03-25T02:24:12;10.68;;;5.47;;
19879;SDS011;10102;50.828;4.416;2024-03-25T02:26:40;9.77;;;4.93;;
19879;SDS011;10102;50.828;4.416;2024-03-25T02:29:09;8.70;;;5.00;;
19879;SDS011;10102;50.828;4.416;2024-03-25T02:31:34;8.30;;;5.05;;
19879;SDS011;10102;50.828;4.416;2024-03-25T02:34:00;5.97;;;4.43;;
19879;SDS011;10102;50.828;4.416;2024-03-25T02:36:26;12.63;;;5.05;;
19879;SDS011;10102;50.828;4.416;2024-03-25T02:38:52;9.23;;;5.22;;
19879;SDS011;10102;50.828;4.416;2024-03-25T02:41:18;9.45;;;5.90;;
19879;SDS011;10102;50.828;4.416;2024-03-25T02:43:44;9.70;;;5.32;;
19879;SDS011;10102;50.828;4.416;2024-03-25T02:46:10;11.15;;;5.80;;
19879;SDS011;10102;50.828;4.416;2024-03-25T02:48:37;11.27;;;5.75;;
19879;SDS011;10102;50.828;4.416;2024-03-25T02:51:02;10.25;;;5.50;;
19879;SDS011;10102;50.828;4.416;2024-03-25T02:53:28;14.70;;;6.03;;
19879;SDS011;10102;50.828;4.416;2024-03-25T02:55:54;13.75;;;5.80;;
19879;SDS011;10102;50.828;4.416;2024-03-25T02:58:19;8.55;;;5.35;;
19879;SDS011;10102;50.828;4.416;2024-03-25T03:00:45;10.05;;;5.20;;
19879;SDS011;10102;50.828;4.416;2024-03-25T03:03:11;15.43;;;6.40;;
19879;SDS011;10102;50.828;4.416;2024-03-25T03:05:36;11.82;;;6.07;;
19879;SDS011;10102;50.828;4.416;2024-03-25T03:08:02;9.70;;;5.75;;
19879;SDS011;10102;50.828;4.416;2024-03-25T03:10:28;10.50;;;5.63;;
19879;SDS011;10102;50.828;4.416;2024-03-25T03:12:54;12.35;;;5.55;;
19879;SDS011;10102;50.828;4.416;2024-03-25T03:15:19;12.75;;;6.20;;
19879;SDS011;10102;50.828;4.416;2024-03-25T03:17:45;12.52;;;6.00;;
19879;SDS011;10102;50.828;4.416;2024-03-25T03:20:11;9.85;;;5.32;;
19879;SDS011;10102;50.828;4.416;2024-03-25T03:22:37;18.00;;;6.50;;
19879;SDS011;10102;50.828;4.416;2024-03-25T03:25:03;13.45;;;6.70;;
19879;SDS011;10102;50.828;4.416;2024-03-25T03:27:29;13.13;;;6.25;;
19879;SDS011;10102;50.828;4.416;2024-03-25T03:29:55;17.27;;;6.55;;
19879;SDS011;10102;50.828;4.416;2024-03-25T03:32:21;10.98;;;6.05;;
19879;SDS011;10102;50.828;4.416;2024-03-25T03:34:47;8.20;;;5.35;;
19879;SDS011;10102;50.828;4.416;2024-03-25T03:37:13;8.75;;;5.05;;
19879;SDS011;10102;50.828;4.416;2024-03-25T03:39:38;11.05;;;6.18;;
19879;SDS011;10102;50.828;4.416;2024-03-25T03:42:04;10.23;;;5.22;;
19879;SDS011;10102;50.828;4.416;2024-03-25T03:44:30;12.63;;;5.90;;
19879;SDS011;10102;50.828;4.416;2024-03-25T03:46:56;10.30;;;6.82;;
19879;SDS011;10102;50.828;4.416;2024-03-25T03:49:23;21.63;;;6.93;;
19879;SDS011;10102;50.828;4.416;2024-03-25T03:51:48;18.95;;;6.85;;
19879;SDS011;10102;50.828;4.416;2024-03-25T03:54:14;12.98;;;6.50;;
19879;SDS011;10102;50.828;4.416;2024-03-25T03:56:40;14.35;;;6.50;;
19879;SDS011;10102;50.828;4.416;2024-03-25T03:59:06;24.50;;;8.30;;
19879;SDS011;10102;50.828;4.416;2024-03-25T04:01:31;12.98;;;6.55;;
19879;SDS011;10102;50.828;4.416;2024-03-25T04:03:58;20.15;;;7.38;;
19879;SDS011;10102;50.828;4.416;2024-03-25T04:06:24;20.10;;;6.75;;
19879;SDS011;10102;50.828;4.416;2024-03-25T04:08:50;15.75;;;6.72;;
19879;SDS011;10102;50.828;4.416;2024-03-25T04:11:15;17.05;;;6.78;;
19879;SDS011;10102;50.828;4.416;2024-03-25T04:13:41;13.00;;;6.53;;
19879;SDS011;10102;50.828;4.416;2024-03-25T04:16:08;13.98;;;6.57;;
19879;SDS011;10102;50.828;4.416;2024-03-25T04:18:34;20.63;;;6.65;;
19879;SDS011;10102;50.828;4.416;2024-03-25T04:21:00;14.25;;;6.45;;
19879;SDS011;10102;50.828;4.416;2024-03-25T04:23:26;15.75;;;7.22;;
19879;SDS011;10102;50.828;4.416;2024-03-25T04:25:52;16.75;;;7.72;;
19879;SDS011;10102;50.828;4.416;2024-03-25T04:28:18;18.55;;;7.88;;
19879;SDS011;10102;50.828;4.416;2024-03-25T04:30:50;14.20;;;8.05;;
19879;SDS011;10102;50.828;4.416;2024-03-25T04:33:16;19.08;;;8.10;;
19879;SDS011;10102;50.828;4.416;2024-03-25T04:35:42;13.93;;;7.50;;
19879;SDS011;10102;50.828;4.416;2024-03-25T04:38:08;24.60;;;7.90;;
19879;SDS011;10102;50.828;4.416;2024-03-25T04:40:35;20.42;;;7.70;;
19879;SDS011;10102;50.828;4.416;2024-03-25T04:43:01;13.13;;;6.95;;
19879;SDS011;10102;50.828;4.416;2024-03-25T04:45:27;15.23;;;6.90;;
19879;SDS011;10102;50.828;4.416;2024-03-25T04:47:53;16.35;;;7.72;;
19879;SDS011;10102;50.828;4.416;2024-03-25T04:50:19;17.05;;;7.78;;
19879;SDS011;10102;50.828;4.416;2024-03-25T04:52:44;26.40;;;9.57;;
19879;SDS011;10102;50.828;4.416;2024-03-25T04:57:40;20.95;;;8.73;;
19879;SDS011;10102;50.828;4.416;2024-03-25T05:00:05;14.07;;;8.70;;
19879;SDS011;10102;50.828;4.416;2024-03-25T05:02:32;15.13;;;7.93;;
19879;SDS011;10102;50.828;4.416;2024-03-25T05:04:57;17.80;;;8.60;;
19879;SDS011;10102;50.828;4.416;2024-03-25T05:07:23;19.65;;;8.25;;
19879;SDS011;10102;50.828;4.416;2024-03-25T05:09:49;19.63;;;7.93;;
19879;SDS011;10102;50.828;4.416;2024-03-25T05:12:16;18.00;;;8.20;;
19879;SDS011;10102;50.828;4.416;2024-03-25T05:14:42;21.15;;;8.23;;
19879;SDS011;10102;50.828;4.416;2024-03-25T05:17:07;19.38;;;8.65;;
19879;SDS011;10102;50.828;4.416;2024-03-25T05:19:34;17.67;;;8.93;;
19879;SDS011;10102;50.828;4.416;2024-03-25T05:22:00;20.70;;;9.02;;
19879;SDS011;10102;50.828;4.416;2024-03-25T05:24:26;22.42;;;8.75;;
19879;SDS011;10102;50.828;4.416;2024-03-25T05:26:53;16.63;;;8.63;;
19879;SDS011;10102;50.828;4.416;2024-03-25T05:29:19;17.23;;;7.82;;
19879;SDS011;10102;50.828;4.416;2024-03-25T05:31:58;23.85;;;9.15;;
19879;SDS011;10102;50.828;4.416;2024-03-25T05:34:25;17.13;;;7.88;;
19879;SDS011;10102;50.828;4.416;2024-03-25T05:36:52;24.40;;;9.50;;
19879;SDS011;10102;50.828;4.416;2024-03-25T05:39:19;18.42;;;8.68;;
19879;SDS011;10102;50.828;4.416;2024-03-25T05:41:45;20.77;;;8.15;;
19879;SDS011;10102;50.828;4.416;2024-03-25T05:44:12;18.80;;;8.63;;
19879;SDS011;10102;50.828;4.416;2024-03-25T05:46:40;19.10;;;8.80;;
19879;SDS011;10102;50.828;4.416;2024-03-25T05:49:06;22.73;;;9.43;;
19879;SDS011;10102;50.828;4.416;2024-03-25T05:51:32;21.20;;;8.50;;
19879;SDS011;10102;50.828;4.416;2024-03-25T05:53:58;22.20;;;9.48;;
19879;SDS011;10102;50.828;4.416;2024-03-25T05:56:26;20.75;;;9.35;;
19879;SDS011;10102;50.828;4.416;2024-03-25T05:58:58;25.83;;;10.45;;
19879;SDS011;10102;50.828;4.416;2024-03-25T06:01:24;26.10;;;11.05;;
19879;SDS011;10102;50.828;4.416;2024-03-25T06:03:51;37.38;;;12.80;;
19879;SDS011;10102;50.828;4.416;2024-03-25T06:06:16;39.80;;;14.30;;
19879;SDS011;10102;50.828;4.416;2024-03-25T06:08:42;29.27;;;11.98;;
19879;SDS011;10102;50.828;4.416;2024-03-25T06:11:08;33.00;;;12.70;;
19879;SDS011;10102;50.828;4.416;2024-03-25T06:13:34;32.88;;;12.25;;
19879;SDS011;10102;50.828;4.416;2024-03-25T06:16:00;35.72;;;13.60;;
19879;SDS011;10102;50.828;4.416;2024-03-25T06:18:26;36.95;;;13.25;;
19879;SDS011;10102;50.828;4.416;2024-03-25T06:20:52;30.05;;;13.40;;
19879;SDS011;10102;50.828;4.416;2024-03-25T06:23:21;35.70;;;13.30;;
19879;SDS011;10102;50.828;4.416;2024-03-25T06:25:54;25.80;;;11.65;;
19879;SDS011;10102;50.828;4.416;2024-03-25T06:28:21;40.10;;;12.90;;
19879;SDS011;10102;50.828;4.416;2024-03-25T06:30:47;32.58;;;12.35;;
19879;SDS011;10102;50.828;4.416;2024-03-25T06:33:33;35.05;;;13.23;;
19879;SDS011;10102;50.828;4.416;2024-03-25T06:36:18;37.03;;;13.65;;
19879;SDS011;10102;50.828;4.416;2024-03-25T06:38:44;33.40;;;12.82;;
19879;SDS011;10102;50.828;4.416;2024-03-25T06:41:10;47.05;;;12.07;;
19879;SDS011;10102;50.828;4.416;2024-03-25T06:43:36;33.08;;;12.43;;
19879;SDS011;10102;50.828;4.416;2024-03-25T06:46:06;31.45;;;12.20;;
19879;SDS011;10102;50.828;4.416;2024-03-25T06:48:32;26.30;;;11.35;;
19879;SDS011;10102;50.828;4.416;2024-03-25T06:50:59;30.73;;;11.82;;
19879;SDS011;10102;50.828;4.416;2024-03-25T06:53:27;27.58;;;11.75;;
19879;SDS011;10102;50.828;4.416;2024-03-25T06:55:57;27.60;;;10.95;;
19879;SDS011;10102;50.828;4.416;2024-03-25T06:58:24;17.88;;;9.30;;
19879;SDS011;10102;50.828;4.416;2024-03-25T07:00:51;30.60;;;11.05;;
19879;SDS011;10102;50.828;4.416;2024-03-25T07:03:18;24.27;;;10.50;;
19879;SDS011;10102;50.828;4.416;2024-03-25T07:05:45;26.35;;;10.55;;
19879;SDS011;10102;50.828;4.416;2024-03-25T07:08:11;29.13;;;10.65;;
19879;SDS011;10102;50.828;4.416;2024-03-25T07:10:38;25.92;;;10.57;;
19879;SDS011;10102;50.828;4.416;2024-03-25T07:13:04;33.63;;;10.95;;
19879;SDS011;10102;50.828;4.416;2024-03-25T07:15:30;30.65;;;10.40;;
19879;SDS011;10102;50.828;4.416;2024-03-25T07:17:57;29.73;;;10.60;;
19879;SDS011;10102;50.828;4.416;2024-03-25T07:20:23;24.33;;;9.48;;
19879;SDS011;10102;50.828;4.416;2024-03-25T07:22:49;24.35;;;9.45;;
19879;SDS011;10102;50.828;4.416;2024-03-25T07:25:15;35.28;;;9.30;;
19879;SDS011;10102;50.828;4.416;2024-03-25T07:27:41;30.92;;;8.68;;
19879;SDS011;10102;50.828;4.416;2024-03-25T07:30:07;28.25;;;9.90;;
19879;SDS011;10102;50.828;4.416;2024-03-25T07:32:33;24.33;;;8.93;;
19879;SDS011;10102;50.828;4.416;2024-03-25T07:35:00;22.70;;;8.90;;
19879;SDS011;10102;50.828;4.416;2024-03-25T07:37:25;24.30;;;8.95;;
19879;SDS011;10102;50.828;4.416;2024-03-25T07:39:51;21.60;;;9.45;;
19879;SDS011;10102;50.828;4.416;2024-03-25T07:42:17;25.50;;;7.43;;
19879;SDS011;10102;50.828;4.416;2024-03-25T07:44:43;21.98;;;8.25;;
19879;SDS011;10102;50.828;4.416;2024-03-25T07:47:09;19.08;;;7.72;;
19879;SDS011;10102;50.828;4.416;2024-03-25T07:49:35;24.02;;;8.38;;
19879;SDS011;10102;50.828;4.416;2024-03-25T07:52:01;24.23;;;8.75;;
19879;SDS011;10102;50.828;4.416;2024-03-25T07:54:27;22.77;;;8.32;;
19879;SDS011;10102;50.828;4.416;2024-03-25T07:56:53;21.23;;;8.15;;
19879;SDS011;10102;50.828;4.416;2024-03-25T07:59:19;22.95;;;7.72;;
19879;SDS011;10102;50.828;4.416;2024-03-25T08:01:45;18.55;;;8.35;;
19879;SDS011;10102;50.828;4.416;2024-03-25T08:04:10;19.92;;;7.63;;
19879;SDS011;10102;50.828;4.416;2024-03-25T08:06:36;19.58;;;8.10;;
19879;SDS011;10102;50.828;4.416;2024-03-25T08:09:02;28.13;;;8.57;;
19879;SDS011;10102;50.828;4.416;2024-03-25T08:11:33;20.05;;;7.60;;
19879;SDS011;10102;50.828;4.416;2024-03-25T08:13:59;31.25;;;9.13;;
19879;SDS011;10102;50.828;4.416;2024-03-25T08:16:25;20.25;;;7.68;;
19879;SDS011;10102;50.828;4.416;2024-03-25T08:18:51;19.55;;;6.30;;
19879;SDS011;10102;50.828;4.416;2024-03-25T08:21:17;20.77;;;7.93;;
19879;SDS011;10102;50.828;4.416;2024-03-25T08:23:46;24.52;;;7.85;;
19879;SDS011;10102;50.828;4.416;2024-03-25T08:26:12;16.27;;;7.68;;
19879;SDS011;10102;50.828;4.416;2024-03-25T08:28:37;16.85;;;7.25;;
19879;SDS011;10102;50.828;4.416;2024-03-25T08:31:03;20.95;;;7.93;;
19879;SDS011;10102;50.828;4.416;2024-03-25T08:33:29;17.35;;;8.27;;
19879;SDS011;10102;50.828;4.416;2024-03-25T08:35:55;20.77;;;7.25;;
19879;SDS011;10102;50.828;4.416;2024-03-25T08:38:21;24.15;;;7.07;;
19879;SDS011;10102;50.828;4.416;2024-03-25T08:40:47;19.42;;;7.50;;
19879;SDS011;10102;50.828;4.416;2024-03-25T08:43:13;12.32;;;6.63;;
19879;SDS011;10102;50.828;4.416;2024-03-25T08:45:38;18.83;;;7.20;;
19879;SDS011;10102;50.828;4.416;2024-03-25T08:48:06;17.95;;;7.00;;
19879;SDS011;10102;50.828;4.416;2024-03-25T08:50:32;14.98;;;6.63;;
19879;SDS011;10102;50.828;4.416;2024-03-25T08:52:57;18.88;;;6.07;;
19879;SDS011;10102;50.828;4.416;2024-03-25T08:55:23;22.17;;;8.13;;
19879;SDS011;10102;50.828;4.416;2024-03-25T08:57:49;17.75;;;6.88;;
19879;SDS011;10102;50.828;4.416;2024-03-25T09:00:16;23.98;;;8.02;;
19879;SDS011;10102;50.828;4.416;2024-03-25T09:02:43;18.50;;;7.78;;
19879;SDS011;10102;50.828;4.416;2024-03-25T09:05:09;25.48;;;7.30;;
19879;SDS011;10102;50.828;4.416;2024-03-25T09:07:35;19.60;;;7.35;;
19879;SDS011;10102;50.828;4.416;2024-03-25T09:10:01;17.45;;;7.22;;
19879;SDS011;10102;50.828;4.416;2024-03-25T09:12:45;25.10;;;7.35;;
19879;SDS011;10102;50.828;4.416;2024-03-25T09:15:11;18.33;;;6.55;;
19879;SDS011;10102;50.828;4.416;2024-03-25T09:17:37;20.85;;;8.07;;
19879;SDS011;10102;50.828;4.416;2024-03-25T09:20:04;16.50;;;6.32;;
19879;SDS011;10102;50.828;4.416;2024-03-25T09:22:41;18.73;;;7.60;;
19879;SDS011;10102;50.828;4.416;2024-03-25T09:25:10;14.18;;;6.88;;
19879;SDS011;10102;50.828;4.416;2024-03-25T09:27:37;14.38;;;6.85;;
19879;SDS011;10102;50.828;4.416;2024-03-25T09:30:03;16.50;;;6.53;;
19879;SDS011;10102;50.828;4.416;2024-03-25T09:32:29;14.48;;;5.65;;
19879;SDS011;10102;50.828;4.416;2024-03-25T09:34:58;14.13;;;5.90;;
19879;SDS011;10102;50.828;4.416;2024-03-25T09:37:24;20.73;;;7.07;;
19879;SDS011;10102;50.828;4.416;2024-03-25T09:39:50;20.50;;;6.43;;
19879;SDS011;10102;50.828;4.416;2024-03-25T09:42:18;18.88;;;7.28;;
19879;SDS011;10102;50.828;4.416;2024-03-25T09:44:51;10.35;;;6.45;;
19879;SDS011;10102;50.828;4.416;2024-03-25T09:47:20;13.70;;;5.50;;
19879;SDS011;10102;50.828;4.416;2024-03-25T09:49:47;12.52;;;5.80;;
19879;SDS011;10102;50.828;4.416;2024-03-25T09:52:14;16.30;;;6.55;;
19879;SDS011;10102;50.828;4.416;2024-03-25T09:54:40;12.18;;;5.93;;
19879;SDS011;10102;50.828;4.416;2024-03-25T09:57:06;12.18;;;5.53;;
19879;SDS011;10102;50.828;4.416;2024-03-25T09:59:33;14.32;;;5.35;;
19879;SDS011;10102;50.828;4.416;2024-03-25T10:01:59;14.52;;;6.05;;
19879;SDS011;10102;50.828;4.416;2024-03-25T10:04:25;13.32;;;6.00;;
19879;SDS011;10102;50.828;4.416;2024-03-25T10:06:51;13.60;;;5.30;;
19879;SDS011;10102;50.828;4.416;2024-03-25T10:09:20;15.25;;;5.32;;
19879;SDS011;10102;50.828;4.416;2024-03-25T10:11:47;15.77;;;5.30;;
19879;SDS011;10102;50.828;4.416;2024-03-25T10:14:16;10.88;;;5.07;;
19879;SDS011;10102;50.828;4.416;2024-03-25T10:16:42;13.05;;;4.55;;
19879;SDS011;10102;50.828;4.416;2024-03-25T10:19:09;14.73;;;4.95;;
19879;SDS011;10102;50.828;4.416;2024-03-25T10:21:35;11.23;;;4.50;;
19879;SDS011;10102;50.828;4.416;2024-03-25T10:24:01;8.25;;;4.40;;
19879;SDS011;10102;50.828;4.416;2024-03-25T10:26:31;12.98;;;4.50;;
19879;SDS011;10102;50.828;4.416;2024-03-25T10:29:06;11.15;;;3.60;;
19879;SDS011;10102;50.828;4.416;2024-03-25T10:31:32;7.22;;;4.18;;
19879;SDS011;10102;50.828;4.416;2024-03-25T10:33:59;10.65;;;3.42;;
19879;SDS011;10102;50.828;4.416;2024-03-25T10:36:26;8.98;;;2.70;;
19879;SDS011;10102;50.828;4.416;2024-03-25T10:38:56;11.57;;;3.75;;
19879;SDS011;10102;50.828;4.416;2024-03-25T10:41:24;9.65;;;3.40;;
19879;SDS011;10102;50.828;4.416;2024-03-25T10:43:51;13.02;;;4.15;;
19879;SDS011;10102;50.828;4.416;2024-03-25T10:46:20;9.63;;;3.63;;
19879;SDS011;10102;50.828;4.416;2024-03-25T10:51:30;7.90;;;3.08;;
19879;SDS011;10102;50.828;4.416;2024-03-25T10:53:57;6.35;;;3.03;;
19879;SDS011;10102;50.828;4.416;2024-03-25T10:56:23;11.98;;;2.75;;
19879;SDS011;10102;50.828;4.416;2024-03-25T10:58:49;8.07;;;2.70;;
19879;SDS011;10102;50.828;4.416;2024-03-25T11:01:18;6.47;;;3.03;;
19879;SDS011;10102;50.828;4.416;2024-03-25T11:03:48;8.95;;;2.80;;
19879;SDS011;10102;50.828;4.416;2024-03-25T11:06:14;12.10;;;4.00;;
19879;SDS011;10102;50.828;4.416;2024-03-25T11:08:42;6.68;;;3.08;;
19879;SDS011;10102;50.828;4.416;2024-03-25T11:11:12;10.10;;;3.15;;
19879;SDS011;10102;50.828;4.416;2024-03-25T11:13:38;6.80;;;2.88;;
19879;SDS011;10102;50.828;4.416;2024-03-25T11:16:04;6.63;;;2.25;;
19879;SDS011;10102;50.828;4.416;2024-03-25T11:18:32;7.38;;;3.00;;
19879;SDS011;10102;50.828;4.416;2024-03-25T11:23:42;8.13;;;2.75;;
19879;SDS011;10102;50.828;4.416;2024-03-25T11:26:26;8.82;;;2.80;;
19879;SDS011;10102;50.828;4.416;2024-03-25T11:28:55;9.23;;;2.50;;
19879;SDS011;10102;50.828;4.416;2024-03-25T11:31:22;6.25;;;2.55;;
19879;SDS011;10102;50.828;4.416;2024-03-25T11:33:51;8.50;;;2.85;;
19879;SDS011;10102;50.828;4.416;2024-03-25T11:36:16;7.40;;;2.88;;
19879;SDS011;10102;50.828;4.416;2024-03-25T11:38:44;8.88;;;2.83;;
19879;SDS011;10102;50.828;4.416;2024-03-25T11:41:11;7.43;;;2.63;;
19879;SDS011;10102;50.828;4.416;2024-03-25T11:43:37;8.30;;;2.60;;
19879;SDS011;10102;50.828;4.416;2024-03-25T11:46:03;5.10;;;2.20;;
19879;SDS011;10102;50.828;4.416;2024-03-25T11:48:30;6.03;;;2.50;;
19879;SDS011;10102;50.828;4.416;2024-03-25T11:50:57;9.73;;;2.75;;
19879;SDS011;10102;50.828;4.416;2024-03-25T11:53:23;7.65;;;2.65;;
19879;SDS011;10102;50.828;4.416;2024-03-25T11:55:49;5.30;;;2.50;;
19879;SDS011;10102;50.828;4.416;2024-03-25T11:58:16;5.35;;;2.33;;
19879;SDS011;10102;50.828;4.416;2024-03-25T12:00:45;5.82;;;2.80;;
19879;SDS011;10102;50.828;4.416;2024-03-25T12:03:15;2.92;;;2.03;;
19879;SDS011;10102;50.828;4.416;2024-03-25T12:05:44;3.40;;;2.35;;
19879;SDS011;10102;50.828;4.416;2024-03-25T12:08:10;5.40;;;2.22;;
19879;SDS011;10102;50.828;4.416;2024-03-25T12:10:37;6.03;;;2.35;;
19879;SDS011;10102;50.828;4.416;2024-03-25T12:13:22;3.90;;;2.28;;
19879;SDS011;10102;50.828;4.416;2024-03-25T12:15:50;6.07;;;2.40;;
19879;SDS011;10102;50.828;4.416;2024-03-25T12:18:16;5.95;;;2.13;;
19879;SDS011;10102;50.828;4.416;2024-03-25T12:20:46;4.45;;;2.35;;
19879;SDS011;10102;50.828;4.416;2024-03-25T12:23:12;6.00;;;2.30;;
19879;SDS011;10102;50.828;4.416;2024-03-25T12:25:39;9.45;;;2.10;;
19879;SDS011;10102;50.828;4.416;2024-03-25T12:28:09;6.00;;;2.42;;
19879;SDS011;10102;50.828;4.416;2024-03-25T12:30:48;5.55;;;2.05;;
19879;SDS011;10102;50.828;4.416;2024-03-25T12:33:15;4.32;;;2.35;;
19879;SDS011;10102;50.828;4.416;2024-03-25T12:35:44;6.65;;;2.70;;
19879;SDS011;10102;50.828;4.416;2024-03-25T12:38:21;7.03;;;2.22;;
19879;SDS011;10102;50.828;4.416;2024-03-25T12:40:47;8.15;;;2.42;;
19879;SDS011;10102;50.828;4.416;2024-03-25T12:43:14;5.15;;;2.00;;
19879;SDS011;10102;50.828;4.416;2024-03-25T12:45:41;6.00;;;2.05;;
19879;SDS011;10102;50.828;4.416;2024-03-25T12:48:07;4.63;;;1.60;;
19879;SDS011;10102;50.828;4.416;2024-03-25T12:50:34;2.13;;;1.15;;
19879;SDS011;10102;50.828;4.416;2024-03-25T12:52:59;5.63;;;1.48;;
19879;SDS011;10102;50.828;4.416;2024-03-25T12:55:25;6.57;;;1.92;;
19879;SDS011;10102;50.828;4.416;2024-03-25T12:57:52;3.25;;;1.58;;
19879;SDS011;10102;50.828;4.416;2024-03-25T13:00:17;3.67;;;1.70;;
19879;SDS011;10102;50.828;4.416;2024-03-25T13:02:43;3.28;;;1.60;;
19879;SDS011;10102;50.828;4.416;2024-03-25T13:05:09;4.00;;;1.67;;
19879;SDS011;10102;50.828;4.416;2024-03-25T13:07:35;4.05;;;1.73;;
19879;SDS011;10102;50.828;4.416;2024-03-25T13:10:01;2.63;;;1.17;;
19879;SDS011;10102;50.828;4.416;2024-03-25T13:12:28;4.63;;;1.50;;
19879;SDS011;10102;50.828;4.416;2024-03-25T13:14:54;5.07;;;1.52;;
19879;SDS011;10102;50.828;4.416;2024-03-25T13:17:21;3.85;;;1.60;;
19879;SDS011;10102;50.828;4.416;2024-03-25T13:19:46;5.50;;;1.42;;
19879;SDS011;10102;50.828;4.416;2024-03-25T13:22:12;3.35;;;1.60;;
19879;SDS011;10102;50.828;4.416;2024-03-25T13:24:38;3.20;;;1.17;;
19879;SDS011;10102;50.828;4.416;2024-03-25T13:27:03;4.05;;;1.20;;
19879;SDS011;10102;50.828;4.416;2024-03-25T13:29:29;4.35;;;1.60;;
19879;SDS011;10102;50.828;4.416;2024-03-25T13:31:56;3.78;;;1.42;;
19879;SDS011;10102;50.828;4.416;2024-03-25T13:34:21;4.80;;;1.70;;
19879;SDS011;10102;50.828;4.416;2024-03-25T13:36:47;4.32;;;1.20;;
19879;SDS011;10102;50.828;4.416;2024-03-25T13:39:13;2.88;;;1.40;;
19879;SDS011;10102;50.828;4.416;2024-03-25T13:41:38;2.70;;;1.40;;
19879;SDS011;10102;50.828;4.416;2024-03-25T13:44:04;5.13;;;1.52;;
19879;SDS011;10102;50.828;4.416;2024-03-25T13:46:30;3.95;;;1.80;;
19879;SDS011;10102;50.828;4.416;2024-03-25T13:48:55;4.60;;;1.50;;
19879;SDS011;10102;50.828;4.416;2024-03-25T13:51:21;2.88;;;1.40;;
19879;SDS011;10102;50.828;4.416;2024-03-25T13:53:47;4.28;;;1.80;;
19879;SDS011;10102;50.828;4.416;2024-03-25T13:56:13;4.38;;;1.48;;
19879;SDS011;10102;50.828;4.416;2024-03-25T13:58:39;4.47;;;1.63;;
19879;SDS011;10102;50.828;4.416;2024-03-25T14:01:04;5.53;;;1.60;;
19879;SDS011;10102;50.828;4.416;2024-03-25T14:03:30;6.32;;;1.70;;
19879;SDS011;10102;50.828;4.416;2024-03-25T14:05:57;3.95;;;1.80;;
19879;SDS011;10102;50.828;4.416;2024-03-25T14:08:22;4.68;;;1.88;;
19879;SDS011;10102;50.828;4.416;2024-03-25T14:10:56;6.07;;;1.73;;
19879;SDS011;10102;50.828;4.416;2024-03-25T14:13:27;4.55;;;1.40;;
19879;SDS011;10102;50.828;4.416;2024-03-25T14:15:53;3.50;;;1.50;;
19879;SDS011;10102;50.828;4.416;2024-03-25T14:18:19;4.53;;;1.60;;
19879;SDS011;10102;50.828;4.416;2024-03-25T14:20:44;5.45;;;1.58;;
19879;SDS011;10102;50.828;4.416;2024-03-25T14:23:11;3.13;;;1.50;;
19879;SDS011;10102;50.828;4.416;2024-03-25T14:25:37;3.03;;;1.42;;
19879;SDS011;10102;50.828;4.416;2024-03-25T14:28:03;4.03;;;1.50;;
19879;SDS011;10102;50.828;4.416;2024-03-25T14:30:29;3.08;;;1.40;;
19879;SDS011;10102;50.828;4.416;2024-03-25T14:32:55;3.05;;;1.40;;
19879;SDS011;10102;50.828;4.416;2024-03-25T14:35:21;6.07;;;1.55;;
19879;SDS011;10102;50.828;4.416;2024-03-25T14:37:46;2.78;;;1.48;;
19879;SDS011;10102;50.828;4.416;2024-03-25T14:40:13;4.20;;;1.60;;
19879;SDS011;10102;50.828;4.416;2024-03-25T14:42:39;6.15;;;1.33;;